Calipso — C6UH2 — position and weather

sailwx.info

Track history (hours):
 
Tides and Currents Weather Stations Pressure Air Temp Water Temp Dewpoint Dewpoint Depression Visibility Wind Speed Wind Dir Waves Ship Positions

Calipso

Last reported at 2018-Apr-12 09:42 UTC. Time now 2018-Apr-22 02:38 UTC.
Position N 01°16' E 103°21'.
Warning: this ship's position is 9 days out of date.

Length 225 m; draft 13.8 m.

Type: Cargo ship. MMSI: 311912000.

Date/timePositionNaut miles runAvg speedWind from/ knotsBaromVisibWave heightAir tempDewpointWater temp
2018-Apr-12 09:42N 01°16' E 103°21'314.0
2018-Apr-12 09:30N 01°15' E 103°24'713.9
2018-Apr-12 09:00N 01°13' E 103°30'713.8
2018-Apr-12 08:30N 01°11' E 103°37'712.7
2018-Apr-12 07:58N 01°08' E 103°43'612.2
2018-Apr-12 07:30N 01°10' E 103°48'612.0
2018-Apr-12 07:00N 01°13' E 103°54'611.7
2018-Apr-12 06:30N 01°15' E 103°59'4 7.9
2018-Apr-12 05:57N 01°17' E 104°03'1 2.4
2018-Apr-12 05:28N 01°18' E 104°04'0 0.1
2018-Apr-12 04:19N 01°18' E 104°04'0 0.0
2018-Apr-11 16:46N 01°18' E 104°03'1 2.2
2018-Apr-11 16:29N 01°18' E 104°03'  
Track history (hours):
 
Tides and Currents Weather Stations Pressure Air Temp Water Temp Dewpoint Dewpoint Depression Visibility Wind Speed Wind Dir Waves Ship Positions

Calipso

Last reported at 2018-Apr-12 09:42 UTC. Time now 2018-Apr-22 02:38 UTC.
Position N 01°16' E 103°21'.
Warning: this ship's position is 9 days out of date.

Length 225 m; draft 13.8 m.

Type: Cargo ship. MMSI: 311912000.

Date/timePositionNaut miles runAvg speedWind from/ knotsBaromVisibWave heightAir tempDewpointWater temp
2018-Apr-12 09:42N 01°16' E 103°21'314.0
2018-Apr-12 09:30N 01°15' E 103°24'713.9
2018-Apr-12 09:00N 01°13' E 103°30'713.8
2018-Apr-12 08:30N 01°11' E 103°37'712.7
2018-Apr-12 07:58N 01°08' E 103°43'612.2
2018-Apr-12 07:30N 01°10' E 103°48'612.0
2018-Apr-12 07:00N 01°13' E 103°54'611.7
2018-Apr-12 06:30N 01°15' E 103°59'4 7.9
2018-Apr-12 05:57N 01°17' E 104°03'1 2.4
2018-Apr-12 05:28N 01°18' E 104°04'0 0.1
2018-Apr-12 04:19N 01°18' E 104°04'0 0.0
2018-Apr-11 16:46N 01°18' E 104°03'1 2.2
2018-Apr-11 16:29N 01°18' E 104°03'  

Dump ship's entire track history